sensor_id;sensor_type;location;lat;lon;timestamp;temperature;humidity
6536;DHT22;34330;52.08032700;5.40923460;2023-07-28T00:00:39;21.70;96.00
6536;DHT22;34330;52.08032700;5.40923460;2023-07-28T00:03:07;21.70;96.00
6536;DHT22;34330;52.08032700;5.40923460;2023-07-28T00:05:36;21.70;96.00
6536;DHT22;34330;52.08032700;5.40923460;2023-07-28T00:08:04;21.70;96.20
6536;DHT22;34330;52.08032700;5.40923460;2023-07-28T00:10:33;21.70;96.20
6536;DHT22;34330;52.08032700;5.40923460;2023-07-28T00:13:01;21.70;96.20
6536;DHT22;34330;52.08032700;5.40923460;2023-07-28T00:15:29;21.70;96.20
6536;DHT22;34330;52.08032700;5.40923460;2023-07-28T00:17:57;21.70;96.20
6536;DHT22;34330;52.08032700;5.40923460;2023-07-28T00:20:26;21.70;96.00
6536;DHT22;34330;52.08032700;5.40923460;2023-07-28T00:22:54;21.70;96.10
6536;DHT22;34330;52.08032700;5.40923460;2023-07-28T00:25:22;21.70;96.10
6536;DHT22;34330;52.08032700;5.40923460;2023-07-28T00:27:51;21.70;96.10
6536;DHT22;34330;52.08032700;5.40923460;2023-07-28T00:30:19;21.70;96.10
6536;DHT22;34330;52.08032700;5.40923460;2023-07-28T00:32:48;21.90;96.20
6536;DHT22;34330;52.08032700;5.40923460;2023-07-28T00:35:16;21.70;96.10
6536;DHT22;34330;52.08032700;5.40923460;2023-07-28T00:37:44;21.70;96.10
6536;DHT22;34330;52.08032700;5.40923460;2023-07-28T00:40:13;21.70;96.40
6536;DHT22;34330;52.08032700;5.40923460;2023-07-28T00:42:41;21.70;96.10
6536;DHT22;34330;52.08032700;5.40923460;2023-07-28T00:45:10;21.70;96.10
6536;DHT22;34330;52.08032700;5.40923460;2023-07-28T00:47:39;21.70;96.10
6536;DHT22;34330;52.08032700;5.40923460;2023-07-28T00:50:09;21.70;96.10
6536;DHT22;34330;52.08032700;5.40923460;2023-07-28T00:52:38;21.70;96.10
6536;DHT22;34330;52.08032700;5.40923460;2023-07-28T00:55:06;21.70;96.00
6536;DHT22;34330;52.08032700;5.40923460;2023-07-28T00:57:34;22.60;96.50
6536;DHT22;34330;52.08032700;5.40923460;2023-07-28T01:00:03;21.70;96.00
6536;DHT22;34330;52.08032700;5.40923460;2023-07-28T01:02:33;21.70;96.00
6536;DHT22;34330;52.08032700;5.40923460;2023-07-28T01:05:02;21.70;96.00
6536;DHT22;34330;52.08032700;5.40923460;2023-07-28T01:07:36;21.70;96.10
6536;DHT22;34330;52.08032700;5.40923460;2023-07-28T01:10:08;21.70;96.20
6536;DHT22;34330;52.08032700;5.40923460;2023-07-28T01:12:38;21.70;96.00
6536;DHT22;34330;52.08032700;5.40923460;2023-07-28T01:15:06;21.70;96.00
6536;DHT22;34330;52.08032700;5.40923460;2023-07-28T01:17:36;21.70;96.00
6536;DHT22;34330;52.08032700;5.40923460;2023-07-28T01:20:05;21.70;96.00
6536;DHT22;34330;52.08032700;5.40923460;2023-07-28T01:22:46;21.70;96.00
6536;DHT22;34330;52.08032700;5.40923460;2023-07-28T01:25:21;21.70;96.30
6536;DHT22;34330;52.08032700;5.40923460;2023-07-28T01:27:52;21.70;96.20
6536;DHT22;34330;52.08032700;5.40923460;2023-07-28T01:30:21;21.70;96.20
6536;DHT22;34330;52.08032700;5.40923460;2023-07-28T01:32:54;21.70;96.10
6536;DHT22;34330;52.08032700;5.40923460;2023-07-28T01:35:23;21.70;96.10
6536;DHT22;34330;52.08032700;5.40923460;2023-07-28T01:37:51;21.70;96.10
6536;DHT22;34330;52.08032700;5.40923460;2023-07-28T01:40:20;21.70;96.00
6536;DHT22;34330;52.08032700;5.40923460;2023-07-28T01:42:48;21.80;96.00
6536;DHT22;34330;52.08032700;5.40923460;2023-07-28T01:45:17;21.90;96.10
6536;DHT22;34330;52.08032700;5.40923460;2023-07-28T01:47:46;21.70;96.10
6536;DHT22;34330;52.08032700;5.40923460;2023-07-28T01:50:14;21.80;96.10
6536;DHT22;34330;52.08032700;5.40923460;2023-07-28T01:52:42;21.70;96.00
6536;DHT22;34330;52.08032700;5.40923460;2023-07-28T01:55:10;21.70;96.10
6536;DHT22;34330;52.08032700;5.40923460;2023-07-28T01:57:39;21.70;96.10
6536;DHT22;34330;52.08032700;5.40923460;2023-07-28T02:00:10;21.70;96.20
6536;DHT22;34330;52.08032700;5.40923460;2023-07-28T02:02:40;21.70;96.20
6536;DHT22;34330;52.08032700;5.40923460;2023-07-28T02:05:09;21.70;96.20
6536;DHT22;34330;52.08032700;5.40923460;2023-07-28T02:07:37;21.70;96.20
6536;DHT22;34330;52.08032700;5.40923460;2023-07-28T02:10:05;21.80;96.20
6536;DHT22;34330;52.08032700;5.40923460;2023-07-28T02:12:34;21.80;96.20
6536;DHT22;34330;52.08032700;5.40923460;2023-07-28T02:15:02;21.70;96.10
6536;DHT22;34330;52.08032700;5.40923460;2023-07-28T02:17:30;21.80;96.20
6536;DHT22;34330;52.08032700;5.40923460;2023-07-28T02:20:00;21.80;96.20
6536;DHT22;34330;52.08032700;5.40923460;2023-07-28T02:22:30;21.80;96.20
6536;DHT22;34330;52.08032700;5.40923460;2023-07-28T02:24:58;21.80;96.20
6536;DHT22;34330;52.08032700;5.40923460;2023-07-28T02:27:28;21.80;96.20
6536;DHT22;34330;52.08032700;5.40923460;2023-07-28T02:29:56;21.80;96.20
6536;DHT22;34330;52.08032700;5.40923460;2023-07-28T02:32:26;21.80;96.20
6536;DHT22;34330;52.08032700;5.40923460;2023-07-28T02:34:56;21.90;96.30
6536;DHT22;34330;52.08032700;5.40923460;2023-07-28T02:37:25;21.90;96.30
6536;DHT22;34330;52.08032700;5.40923460;2023-07-28T02:39:54;21.80;96.30
6536;DHT22;34330;52.08032700;5.40923460;2023-07-28T02:42:22;21.80;96.30
6536;DHT22;34330;52.08032700;5.40923460;2023-07-28T02:44:52;21.80;96.30
6536;DHT22;34330;52.08032700;5.40923460;2023-07-28T02:47:20;21.80;96.30
6536;DHT22;34330;52.08032700;5.40923460;2023-07-28T02:49:48;21.80;96.30
6536;DHT22;34330;52.08032700;5.40923460;2023-07-28T02:52:16;21.80;96.30
6536;DHT22;34330;52.08032700;5.40923460;2023-07-28T02:54:45;21.80;96.30
6536;DHT22;34330;52.08032700;5.40923460;2023-07-28T02:57:13;21.80;96.40
6536;DHT22;34330;52.08032700;5.40923460;2023-07-28T02:59:41;21.80;96.30
6536;DHT22;34330;52.08032700;5.40923460;2023-07-28T03:02:09;21.80;96.30
6536;DHT22;34330;52.08032700;5.40923460;2023-07-28T03:04:37;21.80;96.30
6536;DHT22;34330;52.08032700;5.40923460;2023-07-28T03:07:05;21.80;96.30
6536;DHT22;34330;52.08032700;5.40923460;2023-07-28T03:09:33;21.80;96.30
6536;DHT22;34330;52.08032700;5.40923460;2023-07-28T03:12:03;21.80;96.30
6536;DHT22;34330;52.08032700;5.40923460;2023-07-28T03:14:32;21.80;96.60
6536;DHT22;34330;52.08032700;5.40923460;2023-07-28T03:17:00;21.80;96.70
6536;DHT22;34330;52.08032700;5.40923460;2023-07-28T03:19:28;21.80;96.60
6536;DHT22;34330;52.08032700;5.40923460;2023-07-28T03:21:57;21.90;96.60
6536;DHT22;34330;52.08032700;5.40923460;2023-07-28T03:24:25;21.90;96.50
6536;DHT22;34330;52.08032700;5.40923460;2023-07-28T03:26:53;21.90;96.50
6536;DHT22;34330;52.08032700;5.40923460;2023-07-28T03:29:22;21.90;96.40
6536;DHT22;34330;52.08032700;5.40923460;2023-07-28T03:31:50;21.80;96.40
6536;DHT22;34330;52.08032700;5.40923460;2023-07-28T03:34:18;21.90;96.40
6536;DHT22;34330;52.08032700;5.40923460;2023-07-28T03:36:48;21.90;96.40
6536;DHT22;34330;52.08032700;5.40923460;2023-07-28T03:39:16;21.90;96.50
6536;DHT22;34330;52.08032700;5.40923460;2023-07-28T03:41:45;21.90;96.40
6536;DHT22;34330;52.08032700;5.40923460;2023-07-28T03:44:13;21.90;96.50
6536;DHT22;34330;52.08032700;5.40923460;2023-07-28T03:46:44;21.90;96.50
6536;DHT22;34330;52.08032700;5.40923460;2023-07-28T03:49:12;21.90;96.50
6536;DHT22;34330;52.08032700;5.40923460;2023-07-28T03:51:40;21.90;96.40
6536;DHT22;34330;52.08032700;5.40923460;2023-07-28T03:54:10;21.90;96.50
6536;DHT22;34330;52.08032700;5.40923460;2023-07-28T03:56:38;21.90;96.60
6536;DHT22;34330;52.08032700;5.40923460;2023-07-28T03:59:06;21.90;96.60
6536;DHT22;34330;52.08032700;5.40923460;2023-07-28T04:01:34;21.90;96.60
6536;DHT22;34330;52.08032700;5.40923460;2023-07-28T04:04:04;21.90;96.60
6536;DHT22;34330;52.08032700;5.40923460;2023-07-28T04:06:41;21.80;97.00
6536;DHT22;34330;52.08032700;5.40923460;2023-07-28T04:09:12;21.80;97.20
6536;DHT22;34330;52.08032700;5.40923460;2023-07-28T04:11:40;21.90;97.10
6536;DHT22;34330;52.08032700;5.40923460;2023-07-28T04:14:09;21.90;96.90
6536;DHT22;34330;52.08032700;5.40923460;2023-07-28T04:16:37;21.90;96.80
6536;DHT22;34330;52.08032700;5.40923460;2023-07-28T04:19:06;21.90;96.80
6536;DHT22;34330;52.08032700;5.40923460;2023-07-28T04:21:34;21.90;96.70
6536;DHT22;34330;52.08032700;5.40923460;2023-07-28T04:24:02;21.90;96.70
6536;DHT22;34330;52.08032700;5.40923460;2023-07-28T04:26:30;21.90;96.70
6536;DHT22;34330;52.08032700;5.40923460;2023-07-28T04:28:58;21.90;96.70
6536;DHT22;34330;52.08032700;5.40923460;2023-07-28T04:31:26;22.00;96.80
6536;DHT22;34330;52.08032700;5.40923460;2023-07-28T04:33:55;22.00;96.60
6536;DHT22;34330;52.08032700;5.40923460;2023-07-28T04:36:24;21.90;96.70
6536;DHT22;34330;52.08032700;5.40923460;2023-07-28T04:38:53;22.00;96.70
6536;DHT22;34330;52.08032700;5.40923460;2023-07-28T04:41:21;22.00;96.70
6536;DHT22;34330;52.08032700;5.40923460;2023-07-28T04:43:48;22.00;96.70
6536;DHT22;34330;52.08032700;5.40923460;2023-07-28T04:46:16;22.00;96.70
6536;DHT22;34330;52.08032700;5.40923460;2023-07-28T04:48:45;22.00;96.70
6536;DHT22;34330;52.08032700;5.40923460;2023-07-28T04:51:13;22.00;96.70
6536;DHT22;34330;52.08032700;5.40923460;2023-07-28T04:53:43;22.00;96.70
6536;DHT22;34330;52.08032700;5.40923460;2023-07-28T04:56:10;21.90;96.70
6536;DHT22;34330;52.08032700;5.40923460;2023-07-28T04:58:39;22.00;96.80
6536;DHT22;34330;52.08032700;5.40923460;2023-07-28T05:01:07;22.00;96.70
6536;DHT22;34330;52.08032700;5.40923460;2023-07-28T05:03:36;23.20;97.20
6536;DHT22;34330;52.08032700;5.40923460;2023-07-28T05:06:04;22.00;96.80
6536;DHT22;34330;52.08032700;5.40923460;2023-07-28T05:08:32;22.00;96.80
6536;DHT22;34330;52.08032700;5.40923460;2023-07-28T05:11:02;22.00;96.80
6536;DHT22;34330;52.08032700;5.40923460;2023-07-28T05:13:30;22.00;96.80
6536;DHT22;34330;52.08032700;5.40923460;2023-07-28T05:15:58;22.00;96.80
6536;DHT22;34330;52.08032700;5.40923460;2023-07-28T05:18:26;21.30;96.50
6536;DHT22;34330;52.08032700;5.40923460;2023-07-28T05:20:54;22.00;96.80
6536;DHT22;34330;52.08032700;5.40923460;2023-07-28T05:23:22;22.00;97.20
6536;DHT22;34330;52.08032700;5.40923460;2023-07-28T05:25:50;22.00;97.20
6536;DHT22;34330;52.08032700;5.40923460;2023-07-28T05:28:19;22.00;96.80
6536;DHT22;34330;52.08032700;5.40923460;2023-07-28T05:30:47;22.00;96.90
6536;DHT22;34330;52.08032700;5.40923460;2023-07-28T05:33:15;22.00;96.90
6536;DHT22;34330;52.08032700;5.40923460;2023-07-28T05:35:43;22.00;96.90
6536;DHT22;34330;52.08032700;5.40923460;2023-07-28T05:38:11;22.00;96.90
6536;DHT22;34330;52.08032700;5.40923460;2023-07-28T05:40:39;22.00;97.00
6536;DHT22;34330;52.08032700;5.40923460;2023-07-28T05:43:08;22.20;97.00
6536;DHT22;34330;52.08032700;5.40923460;2023-07-28T05:45:37;22.00;97.00
6536;DHT22;34330;52.08032700;5.40923460;2023-07-28T05:48:05;22.00;97.10
6536;DHT22;34330;52.08032700;5.40923460;2023-07-28T05:50:38;22.00;97.00
6536;DHT22;34330;52.08032700;5.40923460;2023-07-28T05:53:06;22.10;97.10
6536;DHT22;34330;52.08032700;5.40923460;2023-07-28T05:55:34;22.10;97.10
6536;DHT22;34330;52.08032700;5.40923460;2023-07-28T05:58:02;22.10;97.10
6536;DHT22;34330;52.08032700;5.40923460;2023-07-28T06:00:30;22.10;97.00
6536;DHT22;34330;52.08032700;5.40923460;2023-07-28T06:02:59;22.10;97.00
6536;DHT22;34330;52.08032700;5.40923460;2023-07-28T06:05:27;22.10;97.10
6536;DHT22;34330;52.08032700;5.40923460;2023-07-28T06:07:55;22.10;97.00
6536;DHT22;34330;52.08032700;5.40923460;2023-07-28T06:10:24;22.10;97.00
6536;DHT22;34330;52.08032700;5.40923460;2023-07-28T06:12:52;22.20;97.10
6536;DHT22;34330;52.08032700;5.40923460;2023-07-28T06:15:20;22.20;97.20
6536;DHT22;34330;52.08032700;5.40923460;2023-07-28T06:17:48;22.20;97.20
6536;DHT22;34330;52.08032700;5.40923460;2023-07-28T06:20:17;22.20;97.20
6536;DHT22;34330;52.08032700;5.40923460;2023-07-28T06:22:45;22.20;97.30
6536;DHT22;34330;52.08032700;5.40923460;2023-07-28T06:25:13;22.30;97.30
6536;DHT22;34330;52.08032700;5.40923460;2023-07-28T06:27:42;22.20;97.30
6536;DHT22;34330;52.08032700;5.40923460;2023-07-28T06:30:11;22.30;97.40
6536;DHT22;34330;52.08032700;5.40923460;2023-07-28T06:32:39;22.30;97.40
6536;DHT22;34330;52.08032700;5.40923460;2023-07-28T06:35:08;22.30;97.30
6536;DHT22;34330;52.08032700;5.40923460;2023-07-28T06:37:37;24.40;98.20
6536;DHT22;34330;52.08032700;5.40923460;2023-07-28T06:40:06;22.40;97.20
6536;DHT22;34330;52.08032700;5.40923460;2023-07-28T06:42:36;22.40;97.40
6536;DHT22;34330;52.08032700;5.40923460;2023-07-28T06:45:05;22.40;97.10
6536;DHT22;34330;52.08032700;5.40923460;2023-07-28T06:47:33;22.50;97.20
6536;DHT22;34330;52.08032700;5.40923460;2023-07-28T06:50:01;22.50;97.10
6536;DHT22;34330;52.08032700;5.40923460;2023-07-28T06:52:30;22.50;97.00
6536;DHT22;34330;52.08032700;5.40923460;2023-07-28T06:54:59;22.50;97.00
6536;DHT22;34330;52.08032700;5.40923460;2023-07-28T06:57:27;22.50;97.00
6536;DHT22;34330;52.08032700;5.40923460;2023-07-28T06:59:56;22.50;97.00
6536;DHT22;34330;52.08032700;5.40923460;2023-07-28T07:02:29;22.50;97.00
6536;DHT22;34330;52.08032700;5.40923460;2023-07-28T07:04:58;22.50;97.00
6536;DHT22;34330;52.08032700;5.40923460;2023-07-28T07:07:29;22.50;96.90
6536;DHT22;34330;52.08032700;5.40923460;2023-07-28T07:09:59;22.50;96.90
6536;DHT22;34330;52.08032700;5.40923460;2023-07-28T07:12:30;22.50;96.90
6536;DHT22;34330;52.08032700;5.40923460;2023-07-28T07:14:58;22.50;96.90
6536;DHT22;34330;52.08032700;5.40923460;2023-07-28T07:17:26;22.60;97.00
6536;DHT22;34330;52.08032700;5.40923460;2023-07-28T07:19:54;22.60;97.00
6536;DHT22;34330;52.08032700;5.40923460;2023-07-28T07:22:24;22.60;97.00
6536;DHT22;34330;52.08032700;5.40923460;2023-07-28T07:24:52;22.60;97.00
6536;DHT22;34330;52.08032700;5.40923460;2023-07-28T07:27:23;22.60;97.00
6536;DHT22;34330;52.08032700;5.40923460;2023-07-28T07:29:51;22.60;97.00
6536;DHT22;34330;52.08032700;5.40923460;2023-07-28T07:32:19;22.60;97.00
6536;DHT22;34330;52.08032700;5.40923460;2023-07-28T07:34:48;22.60;96.90
6536;DHT22;34330;52.08032700;5.40923460;2023-07-28T07:37:16;22.60;97.00
6536;DHT22;34330;52.08032700;5.40923460;2023-07-28T07:39:44;22.60;96.90
6536;DHT22;34330;52.08032700;5.40923460;2023-07-28T07:42:13;22.70;96.90
6536;DHT22;34330;52.08032700;5.40923460;2023-07-28T07:44:43;22.70;97.20
6536;DHT22;34330;52.08032700;5.40923460;2023-07-28T07:47:15;22.70;96.90
6536;DHT22;34330;52.08032700;5.40923460;2023-07-28T07:49:43;22.70;97.00
6536;DHT22;34330;52.08032700;5.40923460;2023-07-28T07:52:11;22.70;96.80
6536;DHT22;34330;52.08032700;5.40923460;2023-07-28T07:54:39;22.80;97.00
6536;DHT22;34330;52.08032700;5.40923460;2023-07-28T07:57:08;22.80;96.90
6536;DHT22;34330;52.08032700;5.40923460;2023-07-28T07:59:36;22.80;96.80
6536;DHT22;34330;52.08032700;5.40923460;2023-07-28T08:02:06;22.90;96.80
6536;DHT22;34330;52.08032700;5.40923460;2023-07-28T08:04:41;22.90;96.70
6536;DHT22;34330;52.08032700;5.40923460;2023-07-28T08:07:10;23.00;96.60
6536;DHT22;34330;52.08032700;5.40923460;2023-07-28T08:09:38;23.00;96.50
6536;DHT22;34330;52.08032700;5.40923460;2023-07-28T08:12:07;23.00;96.40
6536;DHT22;34330;52.08032700;5.40923460;2023-07-28T08:14:36;23.00;96.50
6536;DHT22;34330;52.08032700;5.40923460;2023-07-28T08:17:05;23.00;96.60
6536;DHT22;34330;52.08032700;5.40923460;2023-07-28T08:19:34;23.10;96.70
6536;DHT22;34330;52.08032700;5.40923460;2023-07-28T08:22:02;23.10;96.80
6536;DHT22;34330;52.08032700;5.40923460;2023-07-28T08:24:31;24.00;97.20
6536;DHT22;34330;52.08032700;5.40923460;2023-07-28T08:26:59;23.20;96.80
6536;DHT22;34330;52.08032700;5.40923460;2023-07-28T08:29:27;23.30;96.70
6536;DHT22;34330;52.08032700;5.40923460;2023-07-28T08:31:55;23.60;96.80
6536;DHT22;34330;52.08032700;5.40923460;2023-07-28T08:34:25;23.40;96.50
6536;DHT22;34330;52.08032700;5.40923460;2023-07-28T08:36:54;23.50;96.50
6536;DHT22;34330;52.08032700;5.40923460;2023-07-28T08:39:22;23.50;96.40
6536;DHT22;34330;52.08032700;5.40923460;2023-07-28T08:41:58;23.60;96.30
6536;DHT22;34330;52.08032700;5.40923460;2023-07-28T08:44:30;23.70;96.20
6536;DHT22;34330;52.08032700;5.40923460;2023-07-28T08:46:59;23.70;96.10
6536;DHT22;34330;52.08032700;5.40923460;2023-07-28T08:49:28;23.80;96.00
6536;DHT22;34330;52.08032700;5.40923460;2023-07-28T08:51:59;23.90;95.80
6536;DHT22;34330;52.08032700;5.40923460;2023-07-28T08:54:30;23.90;95.90
6536;DHT22;34330;52.08032700;5.40923460;2023-07-28T08:56:58;23.90;96.10
6536;DHT22;34330;52.08032700;5.40923460;2023-07-28T08:59:30;24.00;95.80
6536;DHT22;34330;52.08032700;5.40923460;2023-07-28T09:01:58;24.00;95.70
6536;DHT22;34330;52.08032700;5.40923460;2023-07-28T09:04:28;24.10;95.60
6536;DHT22;34330;52.08032700;5.40923460;2023-07-28T09:06:56;24.10;95.20
6536;DHT22;34330;52.08032700;5.40923460;2023-07-28T09:09:24;24.20;95.40
6536;DHT22;34330;52.08032700;5.40923460;2023-07-28T09:11:59;24.20;95.50
6536;DHT22;34330;52.08032700;5.40923460;2023-07-28T09:14:28;24.30;95.40
6536;DHT22;34330;52.08032700;5.40923460;2023-07-28T09:16:56;24.40;95.30
6536;DHT22;34330;52.08032700;5.40923460;2023-07-28T09:19:34;24.50;95.20
6536;DHT22;34330;52.08032700;5.40923460;2023-07-28T09:22:02;24.60;95.10
6536;DHT22;34330;52.08032700;5.40923460;2023-07-28T09:24:32;24.70;95.30
6536;DHT22;34330;52.08032700;5.40923460;2023-07-28T09:27:01;24.80;95.40
6536;DHT22;34330;52.08032700;5.40923460;2023-07-28T09:29:29;24.90;95.10
6536;DHT22;34330;52.08032700;5.40923460;2023-07-28T09:32:04;25.00;94.90
6536;DHT22;34330;52.08032700;5.40923460;2023-07-28T09:34:33;25.10;94.60
6536;DHT22;34330;52.08032700;5.40923460;2023-07-28T09:37:05;25.20;94.40
6536;DHT22;34330;52.08032700;5.40923460;2023-07-28T09:39:36;25.30;94.00
6536;DHT22;34330;52.08032700;5.40923460;2023-07-28T09:42:05;25.30;94.20
6536;DHT22;34330;52.08032700;5.40923460;2023-07-28T09:44:35;25.40;94.00
6536;DHT22;34330;52.08032700;5.40923460;2023-07-28T09:47:04;25.50;94.00
6536;DHT22;34330;52.08032700;5.40923460;2023-07-28T09:49:41;25.50;93.80
6536;DHT22;34330;52.08032700;5.40923460;2023-07-28T09:52:13;25.60;93.20
6536;DHT22;34330;52.08032700;5.40923460;2023-07-28T09:54:43;25.70;93.10
6536;DHT22;34330;52.08032700;5.40923460;2023-07-28T09:57:14;25.70;93.10
6536;DHT22;34330;52.08032700;5.40923460;2023-07-28T09:59:46;25.70;93.00
6536;DHT22;34330;52.08032700;5.40923460;2023-07-28T10:02:14;25.70;92.80
6536;DHT22;34330;52.08032700;5.40923460;2023-07-28T10:04:44;25.70;92.90
6536;DHT22;34330;52.08032700;5.40923460;2023-07-28T10:07:13;25.80;92.90
6536;DHT22;34330;52.08032700;5.40923460;2023-07-28T10:09:41;25.80;92.70
6536;DHT22;34330;52.08032700;5.40923460;2023-07-28T10:12:18;25.90;92.70
6536;DHT22;34330;52.08032700;5.40923460;2023-07-28T10:14:46;25.90;92.30
6536;DHT22;34330;52.08032700;5.40923460;2023-07-28T10:17:16;26.00;92.30
6536;DHT22;34330;52.08032700;5.40923460;2023-07-28T10:19:45;26.00;92.20
6536;DHT22;34330;52.08032700;5.40923460;2023-07-28T10:22:13;26.00;91.90
6536;DHT22;34330;52.08032700;5.40923460;2023-07-28T10:24:51;26.00;91.70
6536;DHT22;34330;52.08032700;5.40923460;2023-07-28T10:27:30;26.00;91.20
6536;DHT22;34330;52.08032700;5.40923460;2023-07-28T10:29:59;26.00;91.10
6536;DHT22;34330;52.08032700;5.40923460;2023-07-28T10:32:28;26.00;91.20
6536;DHT22;34330;52.08032700;5.40923460;2023-07-28T10:35:01;25.90;91.10
6536;DHT22;34330;52.08032700;5.40923460;2023-07-28T10:37:31;25.90;90.90
6536;DHT22;34330;52.08032700;5.40923460;2023-07-28T10:40:22;25.90;91.10
6536;DHT22;34330;52.08032700;5.40923460;2023-07-28T10:42:51;25.80;91.00
6536;DHT22;34330;52.08032700;5.40923460;2023-07-28T10:45:20;25.80;91.40
6536;DHT22;34330;52.08032700;5.40923460;2023-07-28T10:47:48;25.80;91.60
6536;DHT22;34330;52.08032700;5.40923460;2023-07-28T10:50:18;25.80;91.70
6536;DHT22;34330;52.08032700;5.40923460;2023-07-28T10:52:47;25.80;92.00
6536;DHT22;34330;52.08032700;5.40923460;2023-07-28T10:55:15;26.00;91.70
6536;DHT22;34330;52.08032700;5.40923460;2023-07-28T10:57:45;25.80;91.80
6536;DHT22;34330;52.08032700;5.40923460;2023-07-28T11:00:15;25.90;91.90
6536;DHT22;34330;52.08032700;5.40923460;2023-07-28T11:02:44;25.90;91.70
6536;DHT22;34330;52.08032700;5.40923460;2023-07-28T11:05:19;26.10;91.70
6536;DHT22;34330;52.08032700;5.40923460;2023-07-28T11:07:51;25.90;91.50
6536;DHT22;34330;52.08032700;5.40923460;2023-07-28T11:10:19;26.00;91.70
6536;DHT22;34330;52.08032700;5.40923460;2023-07-28T11:12:49;26.00;91.80
6536;DHT22;34330;52.08032700;5.40923460;2023-07-28T11:15:18;26.20;92.00
6536;DHT22;34330;52.08032700;5.40923460;2023-07-28T11:17:47;26.10;91.30
6536;DHT22;34330;52.08032700;5.40923460;2023-07-28T11:20:17;26.20;91.30
6536;DHT22;34330;52.08032700;5.40923460;2023-07-28T11:22:46;26.20;91.40
6536;DHT22;34330;52.08032700;5.40923460;2023-07-28T11:25:15;26.20;91.10
6536;DHT22;34330;52.08032700;5.40923460;2023-07-28T11:27:44;26.50;90.80
6536;DHT22;34330;52.08032700;5.40923460;2023-07-28T11:30:15;26.20;90.60
6536;DHT22;34330;52.08032700;5.40923460;2023-07-28T11:32:45;26.30;90.60
6536;DHT22;34330;52.08032700;5.40923460;2023-07-28T11:35:16;26.30;90.50
6536;DHT22;34330;52.08032700;5.40923460;2023-07-28T11:37:46;26.30;90.30
6536;DHT22;34330;52.08032700;5.40923460;2023-07-28T11:40:18;26.30;90.50
6536;DHT22;34330;52.08032700;5.40923460;2023-07-28T11:42:47;26.30;90.40
6536;DHT22;34330;52.08032700;5.40923460;2023-07-28T11:45:17;26.40;90.40
6536;DHT22;34330;52.08032700;5.40923460;2023-07-28T11:47:55;26.40;90.40
6536;DHT22;34330;52.08032700;5.40923460;2023-07-28T11:50:24;26.50;90.50
6536;DHT22;34330;52.08032700;5.40923460;2023-07-28T11:52:57;26.60;90.60
6536;DHT22;34330;52.08032700;5.40923460;2023-07-28T11:55:26;26.70;90.50
6536;DHT22;34330;52.08032700;5.40923460;2023-07-28T11:57:56;26.70;89.70
6536;DHT22;34330;52.08032700;5.40923460;2023-07-28T12:00:28;26.80;90.10
6536;DHT22;34330;52.08032700;5.40923460;2023-07-28T12:03:07;26.90;90.10
6536;DHT22;34330;52.08032700;5.40923460;2023-07-28T12:05:39;27.00;88.50
6536;DHT22;34330;52.08032700;5.40923460;2023-07-28T12:08:10;27.10;89.10
6536;DHT22;34330;52.08032700;5.40923460;2023-07-28T12:10:54;27.10;88.40
6536;DHT22;34330;52.08032700;5.40923460;2023-07-28T12:13:24;27.20;87.70
6536;DHT22;34330;52.08032700;5.40923460;2023-07-28T12:15:58;27.20;88.10
6536;DHT22;34330;52.08032700;5.40923460;2023-07-28T12:18:30;27.30;87.90
6536;DHT22;34330;52.08032700;5.40923460;2023-07-28T12:21:01;27.40;87.50
6536;DHT22;34330;52.08032700;5.40923460;2023-07-28T12:23:29;27.40;87.20
6536;DHT22;34330;52.08032700;5.40923460;2023-07-28T12:26:01;27.50;86.60
6536;DHT22;34330;52.08032700;5.40923460;2023-07-28T12:28:29;27.60;86.00
6536;DHT22;34330;52.08032700;5.40923460;2023-07-28T12:31:09;27.60;85.60
6536;DHT22;34330;52.08032700;5.40923460;2023-07-28T12:33:37;27.70;85.00
6536;DHT22;34330;52.08032700;5.40923460;2023-07-28T12:36:06;27.70;83.70
6536;DHT22;34330;52.08032700;5.40923460;2023-07-28T12:38:39;27.70;83.80
6536;DHT22;34330;52.08032700;5.40923460;2023-07-28T12:41:09;27.80;84.00
6536;DHT22;34330;52.08032700;5.40923460;2023-07-28T12:43:37;27.90;83.00
6536;DHT22;34330;52.08032700;5.40923460;2023-07-28T12:46:08;27.90;83.20
6536;DHT22;34330;52.08032700;5.40923460;2023-07-28T12:48:37;27.90;83.50
6536;DHT22;34330;52.08032700;5.40923460;2023-07-28T12:51:08;28.00;82.90
6536;DHT22;34330;52.08032700;5.40923460;2023-07-28T12:53:36;28.20;83.10
6536;DHT22;34330;52.08032700;5.40923460;2023-07-28T12:56:04;28.10;83.10
6536;DHT22;34330;52.08032700;5.40923460;2023-07-28T12:58:34;28.10;82.10
6536;DHT22;34330;52.08032700;5.40923460;2023-07-28T13:01:05;28.30;82.20
6536;DHT22;34330;52.08032700;5.40923460;2023-07-28T13:03:34;28.30;83.10
6536;DHT22;34330;52.08032700;5.40923460;2023-07-28T13:06:03;28.40;83.20
6536;DHT22;34330;52.08032700;5.40923460;2023-07-28T13:08:31;28.50;81.90
6536;DHT22;34330;52.08032700;5.40923460;2023-07-28T13:11:03;28.60;82.20
6536;DHT22;34330;52.08032700;5.40923460;2023-07-28T13:13:35;28.70;80.90
6536;DHT22;34330;52.08032700;5.40923460;2023-07-28T13:16:05;28.80;79.70
6536;DHT22;34330;52.08032700;5.40923460;2023-07-28T13:18:37;28.90;80.40
6536;DHT22;34330;52.08032700;5.40923460;2023-07-28T13:21:06;29.00;79.60
6536;DHT22;34330;52.08032700;5.40923460;2023-07-28T13:23:34;29.00;78.80
6536;DHT22;34330;52.08032700;5.40923460;2023-07-28T13:26:02;29.10;78.80
6536;DHT22;34330;52.08032700;5.40923460;2023-07-28T13:28:34;29.10;77.10
6536;DHT22;34330;52.08032700;5.40923460;2023-07-28T13:31:03;29.20;77.00
6536;DHT22;34330;52.08032700;5.40923460;2023-07-28T13:33:31;29.20;76.60
6536;DHT22;34330;52.08032700;5.40923460;2023-07-28T13:35:59;29.20;75.80
6536;DHT22;34330;52.08032700;5.40923460;2023-07-28T13:38:30;29.20;75.80
6536;DHT22;34330;52.08032700;5.40923460;2023-07-28T13:40:58;29.30;76.50
6536;DHT22;34330;52.08032700;5.40923460;2023-07-28T13:43:26;29.30;76.80
6536;DHT22;34330;52.08032700;5.40923460;2023-07-28T13:45:56;29.30;76.90